Time;durP1;ratioP1;P1;durP2;ratioP2;P2;SDS_P1;SDS_P2;PMS_P1;PMS_P2;Temp;Humidity;BMP_temperature;BMP_pressure;BME280_temperature;BME280_humidity;BME280_pressure;Samples;Min_cycle;Max_cycle;Signal;HPM_P1;HPM_P2
2023/09/18 03:59:41;;;;;;;15.38;12.32;;;;;;;19.33;92.33;100765.03;5606657;31;76387;-57
2023/09/18 04:02:44;;;;;;;13.35;11.48;;;;;;;19.33;92.33;100765.03;5603687;31;34115;-58
2023/09/18 04:05:47;;;;;;;13.38;11.45;;;;;;;18.86;94.05;100759.69;5603726;31;33602;-58
2023/09/18 04:08:51;;;;;;;16.25;11.45;;;;;;;18.95;92.23;100761.25;5603653;31;34376;-58
2023/09/18 04:11:55;;;;;;;14.98;11.35;;;;;;;18.84;95.57;100762.75;5603759;31;33560;-58
2023/09/18 04:14:57;;;;;;;14.20;10.75;;;;;;;18.89;92.60;100761.75;5603481;31;33537;-58
2023/09/18 04:18:00;;;;;;;19.12;11.38;;;;;;;18.87;92.81;100759.34;5603209;31;33579;-58
2023/09/18 04:21:02;;;;;;;12.65;11.15;;;;;;;18.91;96.08;100748.66;5603406;31;32016;-58
2023/09/18 04:24:05;;;;;;;12.43;10.85;;;;;;;18.92;98.63;100747.53;5603541;31;33183;-59
2023/09/18 04:27:07;;;;;;;14.38;11.65;;;;;;;18.91;93.40;100744.00;5603506;31;33653;-59
2023/09/18 04:30:10;;;;;;;16.52;11.52;;;;;;;18.96;92.92;100746.53;5603338;31;34339;-58
2023/09/18 04:33:16;;;;;;;13.98;11.63;;;;;;;18.97;93.01;100744.59;5603428;31;34429;-58
2023/09/18 04:36:19;;;;;;;12.50;10.38;;;;;;;18.94;94.19;100746.09;5603420;31;33608;-59
2023/09/18 04:39:22;;;;;;;14.38;11.45;;;;;;;18.96;93.26;100743.81;5603332;31;33720;-58
2023/09/18 04:42:26;;;;;;;14.32;11.25;;;;;;;18.99;95.58;100745.09;5603298;31;33579;-58
2023/09/18 04:45:31;;;;;;;14.07;10.93;;;;;;;19.05;91.02;100756.56;5603019;31;32689;-58
2023/09/18 04:48:34;;;;;;;13.45;10.73;;;;;;;19.07;89.46;100757.03;5603188;31;33481;-58
2023/09/18 04:51:38;;;;;;;14.93;10.82;;;;;;;19.13;89.10;100747.56;5603288;31;33422;-58
2023/09/18 04:54:41;;;;;;;14.40;11.93;;;;;;;19.14;88.75;100757.28;5602486;31;33614;-58
2023/09/18 04:57:44;;;;;;;13.15;11.30;;;;;;;19.10;88.94;100750.94;5602659;31;33626;-58
2023/09/18 05:00:54;;;;;;;16.60;11.57;;;;;;;19.09;93.75;100752.84;5602125;31;34429;-59
2023/09/18 05:03:57;;;;;;;15.73;11.35;;;;;;;19.24;97.12;100748.78;5602988;31;33562;-58
2023/09/18 05:07:02;;;;;;;16.52;11.80;;;;;;;19.30;89.64;100746.66;5602695;31;33663;-58
2023/09/18 05:10:07;;;;;;;13.88;11.73;;;;;;;19.36;99.17;100743.41;5593089;31;34167;-58
2023/09/18 05:13:11;;;;;;;18.08;11.40;;;;;;;19.37;87.32;100746.91;5589571;31;33574;-58
2023/09/18 05:16:14;;;;;;;13.50;12.10;;;;;;;19.37;86.76;100745.03;5589590;31;33674;-56
2023/09/18 05:19:16;;;;;;;15.70;11.82;;;;;;;19.40;87.24;100749.81;5589155;31;31864;-58
2023/09/18 05:22:18;;;;;;;16.92;11.55;;;;;;;19.59;91.09;100748.53;5589607;31;33685;-58
2023/09/18 05:25:23;;;;;;;18.10;11.63;;;;;;;19.59;87.06;100743.09;5589967;31;34318;-58
2023/09/18 05:28:25;;;;;;;20.45;11.63;;;;;;;19.65;83.81;100739.88;5589086;31;33609;-58
2023/09/18 05:31:28;;;;;;;14.00;11.27;;;;;;;19.72;91.33;100750.22;5588983;31;33591;-59
2023/09/18 05:34:31;;;;;;;13.95;11.30;;;;;;;19.74;85.42;100755.34;5588357;31;33700;-58
2023/09/18 05:37:34;;;;;;;14.68;11.30;;;;;;;19.74;85.42;100752.63;5589293;31;34295;-58
2023/09/18 05:40:37;;;;;;;15.50;11.73;;;;;;;19.83;83.70;100754.12;5589012;31;34461;-58
2023/09/18 05:43:41;;;;;;;22.52;12.23;;;;;;;19.87;83.51;100748.81;5589618;31;33727;-58
2023/09/18 05:46:44;;;;;;;13.75;10.13;;;;;;;19.79;84.06;100745.03;5588442;31;34249;-58
2023/09/18 05:49:49;;;;;;;19.62;11.12;;;;;;;19.86;91.28;100742.56;5588283;31;33713;-58
2023/09/18 05:52:51;;;;;;;15.63;11.12;;;;;;;19.87;83.72;100735.22;5588882;31;34251;-58
2023/09/18 05:55:56;;;;;;;13.15;11.57;;;;;;;19.88;91.08;100732.16;5589306;31;33650;-58
2023/09/18 05:58:58;;;;;;;16.25;11.50;;;;;;;19.91;82.25;100731.50;5588847;31;33747;-58
2023/09/18 06:02:02;;;;;;;19.92;11.55;;;;;;;19.93;82.74;100737.41;5587720;31;33542;-58
2023/09/18 06:05:06;;;;;;;13.80;10.75;;;;;;;19.86;83.54;100731.69;5589537;31;33218;-58
2023/09/18 06:08:08;;;;;;;44.58;12.82;;;;;;;19.94;82.29;100728.09;5589152;31;33420;-58
2023/09/18 06:11:11;;;;;;;19.55;11.20;;;;;;;19.97;85.55;100728.53;5587922;31;34270;-58
2023/09/18 06:14:13;;;;;;;16.42;11.40;;;;;;;20.09;84.45;100736.75;5588926;31;33600;-58
2023/09/18 06:17:16;;;;;;;21.17;11.45;;;;;;;20.13;83.61;100727.59;5589245;31;33254;-58
2023/09/18 06:20:18;;;;;;;13.93;10.80;;;;;;;20.12;83.78;100730.66;5588077;31;34337;-58
2023/09/18 06:23:21;;;;;;;14.50;11.18;;;;;;;20.27;86.09;100721.06;5587826;31;33719;-58
2023/09/18 06:26:23;;;;;;;14.05;11.25;;;;;;;20.29;84.02;100729.66;5587477;31;33682;-56
2023/09/18 06:29:26;;;;;;;13.35;10.57;;;;;;;20.27;82.22;100723.78;5582440;31;32882;-55
2023/09/18 06:32:28;;;;;;;19.80;10.82;;;;;;;20.41;85.51;100721.53;5576572;31;33568;-55
2023/09/18 06:35:31;;;;;;;12.93;10.93;;;;;;;20.48;82.03;100716.31;5573274;31;34367;-55
2023/09/18 06:38:33;;;;;;;13.27;10.93;;;;;;;20.52;83.69;100717.25;5567737;32;34028;-56
2023/09/18 06:41:36;;;;;;;15.23;10.57;;;;;;;20.56;83.78;100722.81;5574590;31;33670;-56
2023/09/18 06:44:39;;;;;;;15.23;11.05;;;;;;;20.59;79.54;100714.75;5587099;31;34389;-55
2023/09/18 06:47:42;;;;;;;12.25;10.85;;;;;;;20.57;78.95;100714.31;5580488;31;33611;-55
2023/09/18 06:50:44;;;;;;;15.63;11.38;;;;;;;20.54;79.20;100714.22;5568866;32;33444;-55
2023/09/18 06:53:47;;;;;;;16.67;11.68;;;;;;;20.64;83.20;100716.47;5568794;32;34379;-57
2023/09/18 06:56:50;;;;;;;12.43;10.48;;;;;;;20.69;82.02;100713.53;5582773;31;33817;-56
2023/09/18 06:59:53;;;;;;;20.52;11.77;;;;;;;20.69;83.09;100715.44;5588040;31;35724;-56
2023/09/18 07:02:55;;;;;;;14.87;10.98;;;;;;;20.72;79.06;100710.12;5580310;31;34255;-56
2023/09/18 07:05:59;;;;;;;12.85;10.82;;;;;;;20.73;84.60;100714.44;5586053;31;33240;-56
2023/09/18 07:09:04;;;;;;;15.10;11.60;;;;;;;20.84;90.56;100717.50;5588028;31;33833;-56
2023/09/18 07:12:09;;;;;;;13.40;11.73;;;;;;;20.85;78.70;100719.88;5584133;31;33230;-56
2023/09/18 07:15:12;;;;;;;14.20;11.12;;;;;;;20.82;78.31;100715.09;5570839;31;33581;-56
2023/09/18 07:18:15;;;;;;;17.62;11.65;;;;;;;20.98;84.39;100715.22;5581308;31;33760;-56
2023/09/18 07:21:18;;;;;;;14.60;11.40;;;;;;;20.94;77.34;100700.69;5567240;32;33716;-56
2023/09/18 07:24:21;;;;;;;14.82;11.35;;;;;;;21.06;79.42;100711.59;5575187;31;34381;-56
2023/09/18 07:27:23;;;;;;;14.82;11.18;;;;;;;21.07;80.48;100715.91;5572009;31;33794;-56
2023/09/18 07:30:27;;;;;;;14.85;11.85;;;;;;;21.10;78.24;100714.41;5578294;31;33242;-55
2023/09/18 07:33:29;;;;;;;19.30;11.68;;;;;;;21.08;77.58;100713.97;5583139;31;33351;-56
2023/09/18 07:36:32;;;;;;;15.77;11.20;;;;;;;21.08;77.00;100709.28;5580986;31;34088;-56
2023/09/18 07:39:34;;;;;;;16.05;11.65;;;;;;;21.25;79.48;100708.25;5575231;31;33666;-56
2023/09/18 07:42:37;;;;;;;18.17;11.27;;;;;;;21.41;82.76;100707.56;5575496;31;33622;-55
2023/09/18 07:45:40;;;;;;;14.55;11.02;;;;;;;21.38;78.06;100709.03;5567099;32;33139;-56
2023/09/18 07:48:43;;;;;;;15.25;11.75;;;;;;;21.48;79.70;100707.75;5567722;32;34334;-55
2023/09/18 07:51:45;;;;;;;20.25;12.50;;;;;;;21.49;76.96;100709.34;5567945;32;34279;-56
2023/09/18 07:54:47;;;;;;;16.12;11.82;;;;;;;21.47;77.78;100706.19;5568051;32;33652;-56
2023/09/18 07:57:51;;;;;;;14.98;11.93;;;;;;;21.44;77.64;100699.47;5568752;31;34295;-56
2023/09/18 08:00:59;;;;;;;17.20;11.75;;;;;;;21.49;78.74;100690.25;5587665;31;33671;-56
2023/09/18 08:04:02;;;;;;;17.05;12.55;;;;;;;21.51;76.00;100688.78;5587443;31;33530;-56
2023/09/18 08:07:07;;;;;;;14.52;11.15;;;;;;;21.58;78.26;100696.38;5587725;31;33661;-56
2023/09/18 08:10:12;;;;;;;15.30;11.25;;;;;;;21.52;77.27;100687.66;5587313;31;34349;-55
2023/09/18 08:13:15;;;;;;;15.65;11.48;;;;;;;21.64;77.90;100683.28;5567724;31;33662;-55
2023/09/18 08:16:17;;;;;;;13.85;10.75;;;;;;;21.66;78.21;100681.00;5572258;31;34279;-57
2023/09/18 08:19:20;;;;;;;15.57;11.52;;;;;;;21.72;78.24;100674.94;5567509;31;34192;-56
2023/09/18 08:22:23;;;;;;;15.70;11.43;;;;;;;21.84;77.95;100670.56;5570441;31;33603;-55
2023/09/18 08:25:26;;;;;;;14.90;10.02;;;;;;;21.90;75.15;100656.31;5566978;31;33651;-57
2023/09/18 08:28:30;;;;;;;12.13;10.25;;;;;;;21.96;78.62;100660.37;5576403;31;33561;-56
2023/09/18 08:31:32;;;;;;;16.15;11.88;;;;;;;22.01;79.99;100659.31;5573757;31;34290;-56
2023/09/18 08:34:35;;;;;;;19.08;11.05;;;;;;;22.05;76.70;100652.81;5571042;31;33524;-56
2023/09/18 08:37:37;;;;;;;14.43;10.20;;;;;;;22.10;75.70;100649.03;5577008;31;34196;-55
2023/09/18 08:40:42;;;;;;;13.85;10.77;;;;;;;22.18;76.15;100650.81;5568397;31;33568;-56
2023/09/18 08:43:45;;;;;;;12.75;11.10;;;;;;;22.22;77.53;100653.66;5567479;31;34406;-56
2023/09/18 08:46:49;;;;;;;25.70;11.63;;;;;;;22.26;74.20;100654.53;5580516;31;33172;-56
2023/09/18 08:49:52;;;;;;;24.23;11.43;;;;;;;22.38;76.18;100642.69;5583948;31;33722;-57
2023/09/18 08:52:56;;;;;;;14.90;11.70;;;;;;;22.39;75.59;100644.31;5569774;32;33532;-56
2023/09/18 08:56:01;;;;;;;14.90;11.27;;;;;;;22.47;75.88;100649.56;5583239;31;33732;-56
2023/09/18 08:59:04;;;;;;;13.10;10.88;;;;;;;22.55;73.93;100650.56;5588986;31;33592;-56
2023/09/18 09:02:11;;;;;;;17.25;11.32;;;;;;;22.66;75.05;100645.31;5570869;31;34255;-56
2023/09/18 09:05:14;;;;;;;13.48;10.77;;;;;;;22.82;71.85;100651.56;5586712;31;33915;-56
2023/09/18 09:08:17;;;;;;;13.38;11.05;;;;;;;22.84;77.58;100649.25;5581263;31;33618;-56
2023/09/18 09:11:20;;;;;;;14.48;11.20;;;;;;;22.79;73.27;100651.47;5586031;31;33765;-55
2023/09/18 09:14:27;;;;;;;13.70;11.05;;;;;;;22.82;74.20;100651.56;5589491;31;34316;-56
2023/09/18 09:17:32;;;;;;;15.05;11.50;;;;;;;22.91;75.07;100651.34;5589405;31;33689;-57
2023/09/18 09:20:35;;;;;;;15.23;11.57;;;;;;;22.88;72.62;100658.34;5588833;31;34413;-56
2023/09/18 09:23:51;;;;;;;11.20;10.07;;;;;;;22.97;73.31;100658.16;5588673;31;33722;-56
2023/09/18 09:26:58;;;;;;;15.38;10.90;;;;;;;23.04;74.69;100652.84;5584092;31;33776;-56
2023/09/18 09:30:04;;;;;;;15.57;11.12;;;;;;;23.12;74.09;100642.84;5575190;31;33661;-56
2023/09/18 09:33:07;;;;;;;15.60;10.52;;;;;;;23.17;73.21;100645.28;5571419;31;33756;-56
2023/09/18 09:36:11;;;;;;;18.25;11.07;;;;;;;23.25;71.82;100638.84;5580066;31;33819;-56
2023/09/18 09:39:14;;;;;;;13.62;10.40;;;;;;;23.20;71.20;100639.91;5583887;31;33647;-56
2023/09/18 09:42:28;;;;;;;12.52;10.65;;;;;;;23.23;70.58;100640.34;5581636;31;33655;-56
2023/09/18 09:45:35;;;;;;;12.65;10.95;;;;;;;23.34;71.96;100636.66;5571245;31;34502;-57
2023/09/18 09:48:39;;;;;;;15.32;10.75;;;;;;;23.42;70.93;100640.34;5574509;31;34392;-55
2023/09/18 09:51:42;;;;;;;15.82;10.35;;;;;;;23.49;70.73;100636.94;5569390;31;34372;-56
2023/09/18 09:54:44;;;;;;;18.30;11.52;;;;;;;23.54;69.25;100631.16;5568919;32;34457;-56
2023/09/18 09:57:48;;;;;;;13.80;11.25;;;;;;;23.57;70.30;100623.03;5575279;31;33923;-58
2023/09/18 10:00:59;;;;;;;12.63;10.52;;;;;;;23.66;68.14;100620.84;5569228;31;33260;-58
2023/09/18 10:04:26;;;;;;;13.68;10.25;;;;;;;23.65;69.37;100613.03;5569111;32;33745;-58
2023/09/18 10:07:28;;;;;;;12.30;10.45;;;;;;;23.76;68.98;100605.81;5571463;31;34710;-58
2023/09/18 10:10:35;;;;;;;11.52;10.18;;;;;;;23.81;69.16;100600.06;5587092;31;33730;-59
2023/09/18 10:13:55;;;;;;;12.77;10.55;;;;;;;23.83;69.65;100605.94;5575508;31;33657;-59
2023/09/18 10:17:06;;;;;;;16.02;11.32;;;;;;;23.92;69.40;100594.75;5572991;31;34482;-59
2023/09/18 10:20:19;;;;;;;15.32;10.75;;;;;;;23.92;68.68;100595.53;5577051;31;33407;-58
2023/09/18 10:23:39;;;;;;;13.45;11.35;;;;;;;24.04;68.09;100585.53;5588846;31;33883;-58
2023/09/18 10:27:06;;;;;;;16.05;11.23;;;;;;;23.97;68.13;100579.97;5567851;32;33726;-59
2023/09/18 10:30:11;;;;;;;12.13;10.13;;;;;;;24.07;69.34;100582.87;5582216;31;33926;-58
2023/09/18 10:33:13;;;;;;;12.43;10.35;;;;;;;24.18;67.74;100577.56;5573202;31;33262;-59
2023/09/18 10:36:19;;;;;;;16.70;11.63;;;;;;;24.13;66.07;100554.00;5573913;31;34482;-59
2023/09/18 10:39:24;;;;;;;16.00;11.38;;;;;;;24.15;67.12;100550.91;5579631;31;34530;-59
2023/09/18 10:42:30;;;;;;;13.02;10.82;;;;;;;24.18;66.67;100546.66;5582031;31;33279;-59
2023/09/18 10:45:32;;;;;;;14.40;11.07;;;;;;;24.33;67.02;100542.94;5588012;31;33330;-59
2023/09/18 10:48:36;;;;;;;16.80;11.07;;;;;;;24.32;66.21;100539.44;5587408;31;34330;-59
2023/09/18 10:51:42;;;;;;;16.17;10.45;;;;;;;24.27;66.11;100534.28;5578366;31;33960;-59
2023/09/18 10:54:45;;;;;;;12.95;10.45;;;;;;;24.32;66.24;100527.69;5587232;31;33756;-59
2023/09/18 10:57:54;;;;;;;13.80;11.20;;;;;;;24.33;66.32;100521.81;5587436;31;33710;-59
2023/09/18 11:00:59;;;;;;;13.00;10.80;;;;;;;24.42;65.91;100527.06;5586682;31;33631;-59
2023/09/18 11:04:04;;;;;;;13.45;10.43;;;;;;;24.53;65.21;100535.44;5587989;31;33662;-59
2023/09/18 11:07:06;;;;;;;13.90;11.27;;;;;;;24.63;64.40;100521.06;5586118;31;33624;-59
2023/09/18 11:10:27;;;;;;;15.20;10.63;;;;;;;24.70;64.51;100507.50;5582889;31;33648;-59
2023/09/18 11:13:36;;;;;;;16.02;10.95;;;;;;;24.64;64.21;100519.94;5587172;31;34979;-59
2023/09/18 11:16:39;;;;;;;14.15;10.85;;;;;;;24.69;63.97;100518.81;5587883;31;33714;-58
2023/09/18 11:19:42;;;;;;;12.48;11.18;;;;;;;24.68;64.75;100509.81;5587020;31;33275;-59
2023/09/18 11:22:48;;;;;;;13.30;10.73;;;;;;;24.86;63.59;100510.00;5586926;31;33547;-59
2023/09/18 11:25:53;;;;;;;13.00;10.85;;;;;;;24.82;62.35;100492.72;5587289;31;34280;-58
2023/09/18 11:28:56;;;;;;;14.05;11.32;;;;;;;24.92;62.43;100492.06;5587117;31;33592;-59
2023/09/18 11:32:01;;;;;;;11.63;10.45;;;;;;;24.99;62.22;100489.38;5586210;31;33550;-59
2023/09/18 11:35:08;;;;;;;15.32;11.18;;;;;;;25.17;61.66;100486.88;5581693;31;33383;-59
2023/09/18 11:38:18;;;;;;;15.65;10.10;;;;;;;25.06;61.59;100486.72;5574201;31;32270;-59
2023/09/18 11:41:27;;;;;;;16.48;10.57;;;;;;;25.16;62.03;100490.75;5573294;31;33820;-59
2023/09/18 11:44:30;;;;;;;21.07;12.07;;;;;;;25.08;61.19;100481.66;5579681;31;33842;-59
2023/09/18 11:47:33;;;;;;;13.52;11.25;;;;;;;25.15;61.79;100471.97;5587204;31;33761;-59
2023/09/18 11:50:36;;;;;;;14.48;11.60;;;;;;;25.24;61.40;100481.47;5576635;31;33589;-59
2023/09/18 11:53:41;;;;;;;17.15;11.77;;;;;;;25.28;61.01;100474.03;5585517;31;33724;-59
2023/09/18 11:56:44;;;;;;;;;;;;;;;25.25;60.36;100458.34;5574519;31;33618;-59
2023/09/18 11:59:47;;;;;;;17.08;11.40;;;;;;;25.19;60.54;100465.31;5575765;31;34025;-59
2023/09/18 12:02:51;;;;;;;13.73;11.60;;;;;;;25.23;60.14;100446.16;5583093;31;33448;-59
2023/09/18 12:06:05;;;;;;;12.98;11.45;;;;;;;25.32;59.78;100446.63;5577461;31;33275;-59
2023/09/18 12:09:08;;;;;;;16.08;11.25;;;;;;;25.36;58.90;100449.41;5578549;31;33616;-59
2023/09/18 12:12:14;;;;;;;14.05;11.45;;;;;;;25.36;58.71;100435.69;5566721;32;32904;-59
2023/09/18 12:15:23;;;;;;;12.75;11.55;;;;;;;25.40;58.50;100431.81;5576005;31;33425;-59
2023/09/18 12:18:28;;;;;;;18.25;11.25;;;;;;;25.29;58.84;100431.72;5566093;32;33731;-58
2023/09/18 12:21:32;;;;;;;12.50;10.55;;;;;;;25.39;57.24;100427.47;5568350;32;33855;-59
2023/09/18 12:24:35;;;;;;;16.17;11.32;;;;;;;25.48;57.93;100430.69;5568817;31;31774;-59
2023/09/18 12:27:37;;;;;;;15.65;10.75;;;;;;;25.44;57.43;100432.63;5569541;32;33570;-59
2023/09/18 12:30:40;;;;;;;14.73;10.77;;;;;;;25.59;58.84;100439.00;5573582;31;34295;-59
2023/09/18 12:33:43;;;;;;;15.45;10.98;;;;;;;25.65;56.12;100429.25;5589303;31;33778;-59
2023/09/18 12:36:47;;;;;;;12.77;10.10;;;;;;;25.58;57.32;100418.22;5569492;32;34702;-59
2023/09/18 12:39:51;;;;;;;14.55;10.00;;;;;;;25.58;56.34;100418.22;5579945;31;33660;-59
2023/09/18 12:42:56;;;;;;;15.40;10.60;;;;;;;25.61;55.67;100411.19;5587373;31;34070;-59
2023/09/18 12:45:58;;;;;;;11.85;10.63;;;;;;;25.53;55.93;100402.91;5572626;31;33757;-59
2023/09/18 12:49:16;;;;;;;14.07;11.05;;;;;;;25.48;55.96;100410.72;5575615;31;33415;-59
2023/09/18 12:52:22;;;;;;;13.73;10.85;;;;;;;25.49;56.85;100404.03;5570510;31;34339;-59
2023/09/18 12:55:27;;;;;;;13.75;10.52;;;;;;;25.46;57.11;100402.06;5580289;31;33612;-58
2023/09/18 12:58:32;;;;;;;13.10;10.05;;;;;;;25.48;57.00;100399.72;5575180;31;34601;-59
2023/09/18 13:01:46;;;;;;;14.27;10.50;;;;;;;25.54;56.14;100387.22;5579259;31;33179;-59
2023/09/18 13:04:54;;;;;;;12.00;10.77;;;;;;;25.69;56.41;100388.09;5578759;31;34289;-58
2023/09/18 13:07:56;;;;;;;11.15;9.98;;;;;;;25.72;56.88;100384.59;5576682;31;34299;-59
2023/09/18 13:11:06;;;;;;;12.05;9.98;;;;;;;25.82;55.99;100388.59;5580817;31;33634;-59
2023/09/18 13:14:09;;;;;;;13.38;9.80;;;;;;;25.82;55.80;100380.38;5576497;31;33798;-59
2023/09/18 13:17:11;;;;;;;14.93;10.70;;;;;;;25.91;56.51;100376.09;5570710;31;33657;-58
2023/09/18 13:20:16;;;;;;;13.73;10.63;;;;;;;25.82;55.54;100372.91;5580441;31;33793;-58
2023/09/18 13:23:18;;;;;;;13.05;10.00;;;;;;;25.79;55.94;100373.66;5578799;31;33631;-59
2023/09/18 13:26:24;;;;;;;15.32;10.23;;;;;;;25.80;57.32;100367.03;5575186;31;33695;-58
2023/09/18 13:29:28;;;;;;;15.80;10.60;;;;;;;25.79;55.90;100368.16;5581778;31;33974;-59
2023/09/18 13:32:35;;;;;;;17.90;10.88;;;;;;;25.76;55.52;100358.75;5581083;31;33626;-58
2023/09/18 13:35:43;;;;;;;11.35;10.02;;;;;;;25.73;56.16;100351.28;5583748;31;33773;-58
2023/09/18 13:38:46;;;;;;;13.25;10.90;;;;;;;25.77;56.26;100346.59;5576209;31;34544;-59
2023/09/18 13:41:48;;;;;;;17.62;11.23;;;;;;;25.81;57.00;100345.84;5577030;31;33626;-58
2023/09/18 13:44:52;;;;;;;13.38;10.30;;;;;;;25.76;57.04;100339.53;5572210;31;34053;-58
2023/09/18 13:47:54;;;;;;;15.52;11.43;;;;;;;25.89;56.30;100331.75;5579079;31;33603;-58
2023/09/18 13:50:57;;;;;;;11.43;10.13;;;;;;;25.89;55.57;100311.75;5578648;31;34313;-59
2023/09/18 13:54:00;;;;;;;13.38;10.57;;;;;;;25.85;55.83;100311.72;5578949;31;33892;-58
2023/09/18 13:57:05;;;;;;;14.18;11.10;;;;;;;25.78;56.06;100304.22;5575859;31;33756;-58
2023/09/18 14:00:10;;;;;;;21.15;11.05;;;;;;;25.87;55.31;100305.88;5579281;31;33606;-58
2023/09/18 14:03:15;;;;;;;;;;;;;;;25.87;56.47;100306.66;5578932;31;32375;-59
2023/09/18 14:06:17;;;;;;;36.80;12.85;;;;;;;25.76;55.90;100298.34;5576002;31;34004;-58
2023/09/18 14:09:20;;;;;;;14.48;10.65;;;;;;;25.62;57.52;100306.47;5576199;31;33887;-58
2023/09/18 14:12:23;;;;;;;16.77;11.00;;;;;;;25.66;56.64;100298.25;5573180;31;33449;-58
2023/09/18 14:15:25;;;;;;;18.20;10.40;;;;;;;25.60;56.24;100297.87;5569149;31;33815;-59
2023/09/18 14:18:28;;;;;;;13.50;10.18;;;;;;;25.70;56.55;100296.34;5575269;31;33623;-58
2023/09/18 14:21:33;;;;;;;21.55;11.43;;;;;;;25.77;55.60;100280.69;5574934;31;33539;-58
2023/09/18 14:24:36;;;;;;;14.02;9.88;;;;;;;25.76;56.59;100279.12;5583172;31;33814;-58
2023/09/18 14:27:38;;;;;;;16.73;10.32;;;;;;;25.68;56.77;100271.22;5574200;31;34290;-59
2023/09/18 14:30:41;;;;;;;10.70;9.52;;;;;;;25.72;55.61;100275.53;5570984;31;34407;-58
2023/09/18 14:33:43;;;;;;;16.10;9.98;;;;;;;25.77;55.85;100266.19;5576143;31;33674;-58
2023/09/18 14:36:45;;;;;;;16.73;10.43;;;;;;;25.85;55.84;100262.31;5589097;31;33641;-58
2023/09/18 14:39:50;;;;;;;11.85;9.73;;;;;;;25.67;55.27;100273.19;5589044;31;34306;-59
2023/09/18 14:42:54;;;;;;;15.45;10.40;;;;;;;25.65;55.28;100270.03;5588147;31;33340;-59
2023/09/18 14:45:57;;;;;;;13.52;10.38;;;;;;;25.67;55.55;100269.66;5589045;31;34364;-59
2023/09/18 14:49:00;;;;;;;19.02;10.40;;;;;;;25.73;55.63;100263.41;5588680;31;33164;-59
2023/09/18 14:52:03;;;;;;;18.35;10.35;;;;;;;25.61;56.28;100255.50;5588771;31;34385;-59
2023/09/18 14:55:06;;;;;;;18.27;11.10;;;;;;;25.67;55.31;100250.44;5589006;31;33801;-59
2023/09/18 14:58:08;;;;;;;14.65;9.95;;;;;;;25.57;55.47;100251.97;5588759;31;34254;-59
